Weather at Compaq Stow Heliport

Public forecast

Using degrees Fahrenheit for public forecast. Weather courtesy of forecast.io.

Closest aviation weather report (METAR) to Compaq Stow Heliport

Closest report is Laurence G Hanscom Field, 11.4 nm (21.2 km) ENE. Retrieved 2020/09/25 02:51 UTC (20 minutes ago):

KBED 250251Z AUTO 00000KT 10SM CLR 14/12 A2997 RMK AO2 SLP159 T01440122 51006

Closest aviation forecast (TAF) to Compaq Stow Heliport

Closest forecast is Laurence G Hanscom Field, 11.4 nm (21.2 km) ENE. Retrieved 2020-09-25 00:39 UTC (3 hours ago):

TAF KBED 242336Z 2500/2524 22004KT P6SM BKN250 FM250500 23003KT P6SM BKN250 FM251300 34003KT P6SM SCT250 FM251700 21003KT P6SM FEW200 FM252000 16004KT P6SM FEW120